Airfield :
LOGIN :

Register | Disclaimer

   EN    FR    IT 

 










Legend :    VFR   Marginal VFR   IFR   Intensive IFR   Very Intensive IFR
Visi :
Ceiling :
>= 8 km
>= 3000ft
5 to 8 km
1000 to 3000 ft
1500m to 5 km
500 to 1000 ft
800 to 1500m
200 to 500 ft
< 800m
< 200 ft
Symbols :   Thunderstorms  Fog  Heavy snow  Heavy precipitations  Wind > 20 kt
SIGMETs :     Misc.  Thunderstorms  Icing  Turbulence  Mountain Waves  Volcanic Ashes







- Airport Elevation : 297 ft
- IATA code : UIP
- Download approach charts


LFRQ - Quimper Pluguffan

CURRENT METAR :
  • 260900Z AUTO 27006KT 250V310 9999 BKN011 BKN017 OVC022 14/12 Q1020 TEMPO 2000 -DZ OVC003

EXPIRED METARs :
  • 260830Z AUTO 30007KT 9999 BKN009 OVC023 14/13 Q1021 TEMPO 2000 -DZ OVC003
  • 260800Z AUTO 29007KT 9999 BKN007 BKN014 OVC020 13/13 Q1021 TEMPO 2000 -DZ OVC003
  • 260730Z AUTO 29006KT 260V340 9999 BKN008 OVC013 13/12 Q1021 TEMPO 2000 -DZ OVC003
  • 260700Z AUTO 27005KT 250V320 9999 OVC011 13/12 Q1021 TEMPO 2000 -DZ OVC003
  • 260630Z AUTO 30006KT 260V320 9999 FEW011 OVC021 13/12 Q1021 TEMPO 2000 -DZ OVC003

TAF TAF LFRQ
Valid from the 26 at 06:00 until the 27 at 06:00 UTC


260500Z 2606/2706 26010KT 9999 BKN006 BKN018
TEMPO 2606/2618 2000 -DZ OVC003
TEMPO 2618/2621 2000 RADZ OVC003
BECMG 2620/2622 33010KT
BECMG 2622/2624 BKN010
BECMG 2700/2703 SCT010 SCT030
No reported NOTAMs for that airfield.



MET'MAP, your aeronautical weather chart ! - Copyright ORBIFLY December 2007 - Disclaimer

ORBIFLY MET'MAP TEAM :

Programming & Development : Alexandra Zaïnal
Concept & Development : Baudouin d'Aumeries
Co-Development & Prog : Marc-Olivier Méhu
Technical & hardware support : Manuel Goepfert

Contact : metmap@orbifly.com




SOURCES & CREDITS :

   NOAA